Time;durP1;ratioP1;P1;durP2;ratioP2;P2;SDS_P1;SDS_P2;PMS_P1;PMS_P2;Temp;Humidity;BMP_temperature;BMP_pressure;BME280_temperature;BME280_humidity;BME280_pressure;Samples;Min_cycle;Max_cycle;Signal;HPM_P1;HPM_P2
2023/01/12 00:01:37;;;;;;;10.32;3.15;;;;;;;9.52;78.52;99053.47;5034299;28;20092;-79
2023/01/12 00:04:04;;;;;;;13.68;2.97;;;;;;;9.57;78.79;99068.09;5033872;28;20057;-79
2023/01/12 00:06:32;;;;;;;12.30;2.45;;;;;;;9.56;78.25;99064.59;5033968;28;20148;-79
2023/01/12 00:09:01;;;;;;;9.60;2.38;;;;;;;9.60;78.34;99049.47;5033929;28;20159;-79
2023/01/12 00:11:28;;;;;;;16.55;2.70;;;;;;;9.63;78.46;99052.78;5033859;28;20053;-77
2023/01/12 00:13:54;;;;;;;9.23;2.50;;;;;;;9.64;78.07;99053.59;5033657;28;20057;-78
2023/01/12 00:16:36;;;;;;;15.25;2.80;;;;;;;9.63;78.28;99047.53;5033852;28;20140;-78
2023/01/12 00:19:10;;;;;;;12.30;2.38;;;;;;;9.65;77.88;99044.81;5033639;28;20080;-79
2023/01/12 00:21:59;;;;;;;14.50;2.58;;;;;;;9.60;76.01;99052.97;5033934;28;20494;-79
2023/01/12 00:24:28;;;;;;;8.85;2.80;;;;;;;9.64;77.94;99045.72;5015922;28;20132;-80
2023/01/12 00:26:56;;;;;;;10.07;2.17;;;;;;;9.65;78.21;99056.13;5033541;28;20050;-79
2023/01/12 00:29:24;;;;;;;5.95;2.20;;;;;;;9.68;78.06;99047.22;5033405;28;20144;-79
2023/01/12 00:31:56;;;;;;;10.85;2.25;;;;;;;9.67;77.22;99053.41;5033753;28;20065;-78
2023/01/12 00:34:23;;;;;;;6.47;1.73;;;;;;;9.71;77.79;99056.66;5033456;28;20063;-79
2023/01/12 00:36:50;;;;;;;8.15;1.85;;;;;;;9.70;77.50;99066.34;5033421;28;20100;-79
2023/01/12 00:39:17;;;;;;;10.13;2.45;;;;;;;9.70;77.53;99058.47;5076322;22;20049;-80
2023/01/12 00:47:15;;;;;;;6.18;1.85;;;;;;;9.75;77.20;99059.00;5033450;28;20095;-80
2023/01/12 00:49:42;;;;;;;6.65;1.77;;;;;;;9.77;77.29;99069.44;5015639;28;20054;-80
2023/01/12 00:52:12;;;;;;;6.20;1.60;;;;;;;9.76;77.07;99067.75;5031989;28;20119;-80
2023/01/12 00:54:54;;;;;;;6.85;1.50;;;;;;;9.80;77.16;99052.63;5032731;28;20065;-80
2023/01/12 00:57:21;;;;;;;5.00;1.27;;;;;;;9.81;76.92;99060.41;5033315;28;20060;-80
2023/01/12 00:59:47;;;;;;;6.38;1.45;;;;;;;9.81;77.29;99060.41;5032816;28;20053;-80
2023/01/12 01:02:14;;;;;;;7.85;1.52;;;;;;;9.82;77.33;99063.84;5030146;28;20054;-80
2023/01/12 01:04:40;;;;;;;5.57;1.33;;;;;;;9.82;76.96;99066.50;5014430;28;20064;-80
2023/01/12 01:07:07;;;;;;;6.88;1.30;;;;;;;9.81;77.28;99070.06;5032478;28;20041;-80
2023/01/12 01:09:33;;;;;;;7.55;1.40;;;;;;;9.80;77.06;99058.72;5032576;28;20049;-80
2023/01/12 01:12:00;;;;;;;5.97;1.65;;;;;;;9.78;77.09;99064.09;5032715;28;20044;-80
2023/01/12 01:14:26;;;;;;;5.80;1.92;;;;;;;9.78;77.09;99064.09;5032909;28;20131;-80
2023/01/12 01:16:53;;;;;;;4.93;1.17;;;;;;;9.76;77.35;99073.84;5032208;28;20397;-80
2023/01/12 01:19:19;;;;;;;6.72;1.70;;;;;;;9.71;77.19;99075.94;5032740;28;20132;-79
2023/01/12 01:21:46;;;;;;;5.60;1.60;;;;;;;9.70;77.48;99063.72;5032363;28;20072;-79
2023/01/12 01:24:13;;;;;;;8.93;2.13;;;;;;;9.66;77.54;99062.25;5032891;28;20045;-79
2023/01/12 01:26:41;;;;;;;8.75;2.00;;;;;;;9.64;77.77;99064.97;5031922;28;20486;-79
2023/01/12 01:29:07;;;;;;;5.00;1.73;;;;;;;9.61;77.99;99061.69;5032507;28;20053;-79
2023/01/12 01:31:34;;;;;;;9.82;2.10;;;;;;;9.58;78.12;99051.38;5032257;28;20446;-79
2023/01/12 01:34:01;;;;;;;5.90;1.42;;;;;;;9.56;78.45;99043.59;5032445;28;20088;-79
2023/01/12 01:36:28;;;;;;;7.55;2.05;;;;;;;9.55;78.55;99056.81;5031855;28;20174;-79
2023/01/12 01:38:55;;;;;;;9.80;1.80;;;;;;;9.55;78.79;99056.81;5032296;28;20045;-79
2023/01/12 01:41:28;;;;;;;9.25;1.98;;;;;;;9.52;78.40;99053.47;5032067;28;20050;-80
2023/01/12 01:44:02;;;;;;;;;;;;;;;9.54;77.51;99053.38;5015382;28;20071;-79
2023/01/12 01:46:50;;;;;;;11.23;2.10;;;;;;;9.54;77.87;99049.88;5014104;28;19921;-79
2023/01/12 01:49:55;;;;;;;6.53;2.20;;;;;;;9.56;78.86;99053.25;5032064;28;20045;-79
2023/01/12 01:52:33;;;;;;;7.72;1.95;;;;;;;9.56;78.87;99043.59;4951185;29;20134;-79
2023/01/12 01:55:11;;;;;;;15.10;3.20;;;;;;;9.54;78.99;99045.50;5004424;28;20045;-79
2023/01/12 01:57:47;;;;;;;8.38;2.30;;;;;;;9.55;79.22;99035.81;5031772;28;20096;-80
2023/01/12 02:00:14;;;;;;;9.50;2.53;;;;;;;9.59;79.41;99038.16;5032155;28;20140;-80
2023/01/12 02:02:44;;;;;;;15.85;3.20;;;;;;;9.60;79.68;99028.47;5031500;28;20046;-79
2023/01/12 02:05:18;;;;;;;10.40;2.55;;;;;;;9.61;79.57;99017.03;5031651;28;20077;-79
2023/01/12 02:07:47;;;;;;;7.03;2.40;;;;;;;9.62;79.56;99019.56;5031408;28;20059;-79
2023/01/12 02:10:16;;;;;;;13.10;3.08;;;;;;;9.63;79.71;99012.50;5014087;28;20486;-79
2023/01/12 02:18:29;;;;;;;9.65;2.88;;;;;;;9.70;79.74;99003.28;5031721;28;20048;-79
2023/01/12 02:21:19;;;;;;;12.25;2.78;;;;;;;9.68;78.72;98999.91;5031597;28;20050;-79
2023/01/12 02:24:00;;;;;;;16.27;3.40;;;;;;;9.73;79.62;99000.47;5031389;28;20051;-80
2023/01/12 02:26:45;;;;;;;17.05;3.15;;;;;;;9.76;79.61;98992.34;5013772;28;20056;-79
2023/01/12 02:29:29;;;;;;;13.93;3.03;;;;;;;9.75;79.16;99002.97;5031343;28;20057;-80
2023/01/12 02:32:06;;;;;;;7.15;2.35;;;;;;;9.74;78.97;98994.25;5031507;28;20111;-80
2023/01/12 02:35:08;;;;;;;12.35;3.22;;;;;;;9.81;79.26;98992.06;5030782;28;20046;-79
2023/01/12 02:37:42;;;;;;;9.25;2.97;;;;;;;9.83;79.49;98987.53;4987250;28;20056;-79
2023/01/12 02:40:16;;;;;;;10.82;3.00;;;;;;;9.82;78.70;98972.72;5031079;28;20077;-79
2023/01/12 02:43:13;;;;;;;11.52;2.83;;;;;;;9.84;78.44;98972.63;5031379;28;20052;-79
2023/01/12 02:45:48;;;;;;;14.55;3.15;;;;;;;9.86;78.13;98965.47;5030961;28;20049;-79
2023/01/12 02:48:20;;;;;;;9.32;2.97;;;;;;;9.90;79.23;98961.69;5030964;28;20053;-79
2023/01/12 02:50:56;;;;;;;11.52;3.20;;;;;;;9.89;79.06;98949.50;5013275;28;20072;-79
2023/01/12 02:53:29;;;;;;;14.57;3.03;;;;;;;9.87;78.32;98954.03;5030977;28;20045;-79
2023/01/12 02:55:58;;;;;;;;;;;;;;;9.89;77.57;98944.22;5031081;28;20045;-79
2023/01/12 02:58:28;;;;;;;14.27;3.08;;;;;;;9.93;79.23;98945.72;5030911;28;19921;-79
2023/01/12 03:00:57;;;;;;;12.55;3.17;;;;;;;9.91;79.25;98935.28;5030589;28;20482;-79
2023/01/12 03:03:25;;;;;;;9.30;2.17;;;;;;;9.89;79.61;98936.34;5031302;28;20060;-78
2023/01/12 03:05:55;;;;;;;10.57;3.03;;;;;;;9.84;79.10;98941.94;5030343;28;20045;-79
2023/01/12 03:08:26;;;;;;;11.57;3.00;;;;;;;9.83;79.55;98939.41;5013326;28;20060;-78
2023/01/12 03:11:10;;;;;;;9.50;2.95;;;;;;;9.85;79.89;98929.59;5031012;28;20544;-78
2023/01/12 03:14:04;;;;;;;9.50;2.50;;;;;;;9.80;79.20;98921.19;5031680;28;20049;-77
2023/01/12 03:16:33;;;;;;;8.30;2.75;;;;;;;9.85;79.85;98925.22;5029779;28;20792;-78
2023/01/12 03:19:13;;;;;;;11.07;3.00;;;;;;;9.81;79.41;98922.88;5031120;28;20049;-78
2023/01/12 03:21:54;;;;;;;11.63;2.92;;;;;;;9.81;79.63;98917.63;5030494;28;20140;-77
2023/01/12 03:24:28;;;;;;;10.88;2.78;;;;;;;9.80;79.74;98908.91;5030767;28;20441;-77
2023/01/12 03:27:02;;;;;;;6.82;2.30;;;;;;;9.81;79.63;98907.09;5030147;28;20045;-77
2023/01/12 03:29:28;;;;;;;7.97;2.30;;;;;;;9.82;80.15;98916.66;5030849;28;20050;-76
2023/01/12 03:31:55;;;;;;;8.57;2.30;;;;;;;9.80;80.29;98908.91;5030463;28;20193;-77
2023/01/12 03:34:22;;;;;;;10.48;2.72;;;;;;;9.78;80.42;98908.16;5030619;28;20049;-77
2023/01/12 03:37:12;;;;;;;8.20;2.20;;;;;;;9.75;80.05;98893.44;5030101;28;20152;-76
2023/01/12 03:40:05;;;;;;;12.25;2.25;;;;;;;9.76;80.30;98899.56;5030756;28;20041;-76
2023/01/12 03:43:02;;;;;;;7.40;2.13;;;;;;;9.75;80.17;98882.06;5012657;28;20545;-76
2023/01/12 03:45:28;;;;;;;9.00;2.00;;;;;;;9.78;80.72;98882.72;5030396;28;20507;-76
2023/01/12 03:48:06;;;;;;;9.18;2.15;;;;;;;9.78;80.39;98885.34;5030232;28;20562;-76
2023/01/12 03:50:57;;;;;;;7.22;2.13;;;;;;;9.75;80.14;98882.94;5030702;28;20164;-76
2023/01/12 03:53:24;;;;;;;9.88;2.13;;;;;;;9.81;80.71;98872.94;5030198;28;20092;-76
2023/01/12 03:55:55;;;;;;;7.07;1.73;;;;;;;9.80;80.53;98871.25;5030208;28;20046;-75
2023/01/12 03:58:23;;;;;;;6.80;1.85;;;;;;;9.83;80.48;98878.94;5030332;28;20041;-76
2023/01/12 04:00:50;;;;;;;7.40;2.03;;;;;;;9.83;80.52;98879.78;5030516;28;20059;-76
2023/01/12 04:03:17;;;;;;;5.72;1.80;;;;;;;9.80;80.63;98868.63;5030172;28;20131;-76
2023/01/12 04:05:44;;;;;;;8.95;1.52;;;;;;;9.83;80.63;98868.44;5030316;28;20060;-76
2023/01/12 04:08:13;;;;;;;5.88;1.50;;;;;;;9.82;80.50;98850.97;5029827;28;20052;-76
2023/01/12 04:10:40;;;;;;;9.38;2.30;;;;;;;9.83;80.52;98863.19;5030229;28;20062;-76
2023/01/12 04:13:06;;;;;;;7.55;1.85;;;;;;;9.82;80.65;98846.56;5029908;28;20053;-76
2023/01/12 04:15:36;;;;;;;5.30;1.85;;;;;;;9.82;80.81;98850.97;5027605;28;20077;-76
2023/01/12 04:18:04;;;;;;;6.20;1.85;;;;;;;9.82;80.51;98858.84;5029440;28;20049;-76
2023/01/12 04:20:30;;;;;;;7.82;2.00;;;;;;;9.80;80.79;98837.94;5012334;28;20070;-75
2023/01/12 04:22:57;;;;;;;6.72;1.92;;;;;;;9.82;80.82;98824.69;5029836;28;20133;-75
2023/01/12 04:25:24;;;;;;;8.10;2.28;;;;;;;9.82;80.79;98828.16;5029882;28;20574;-76
2023/01/12 04:27:57;;;;;;;6.57;1.70;;;;;;;9.81;80.38;98807.22;5032863;28;20050;-77
2023/01/12 04:30:26;;;;;;;8.57;1.90;;;;;;;9.84;80.83;98794.75;5033864;28;20050;-76
2023/01/12 04:32:54;;;;;;;8.52;2.50;;;;;;;9.83;80.83;98798.28;5016099;28;20045;-75
2023/01/12 04:35:23;;;;;;;7.78;2.10;;;;;;;9.84;80.87;98794.75;5015494;28;20049;-76
2023/01/12 04:37:50;;;;;;;9.27;3.03;;;;;;;9.85;80.91;98795.56;5015915;28;20067;-76
2023/01/12 04:40:17;;;;;;;12.90;3.17;;;;;;;9.86;80.88;98797.22;5015336;28;20103;-76
2023/01/12 04:43:00;;;;;;;13.40;2.50;;;;;;;9.83;80.55;98792.22;5033696;28;20053;-76
2023/01/12 04:45:32;;;;;;;11.63;2.50;;;;;;;9.85;80.35;98787.66;5015464;28;20478;-76
2023/01/12 04:48:04;;;;;;;11.23;2.20;;;;;;;9.86;80.69;98779.69;5033340;28;20072;-75
2023/01/12 04:50:31;;;;;;;8.73;2.03;;;;;;;9.88;80.80;98790.09;5033348;28;20045;-76
2023/01/12 04:53:01;;;;;;;13.40;3.30;;;;;;;9.87;80.86;98772.66;5033755;28;20457;-76
2023/01/12 04:55:28;;;;;;;11.48;2.83;;;;;;;9.87;80.76;98767.41;5032976;28;20143;-76
2023/01/12 04:57:55;;;;;;;7.93;2.60;;;;;;;9.88;80.91;98753.28;5033239;28;20056;-76
2023/01/12 05:00:23;;;;;;;9.90;2.75;;;;;;;9.88;80.80;98766.44;5033054;28;20403;-77
2023/01/12 05:02:52;;;;;;;9.35;2.15;;;;;;;9.88;80.98;98751.50;5033216;28;20056;-75
2023/01/12 05:05:19;;;;;;;10.05;2.67;;;;;;;9.88;80.76;98756.75;5032847;28;20136;-75
2023/01/12 05:10:30;;;;;;;8.15;2.50;;;;;;;9.88;80.79;98729.63;5032948;28;20046;-75
2023/01/12 05:12:57;;;;;;;8.07;2.33;;;;;;;9.90;80.86;98728.56;5032986;28;20387;-76
2023/01/12 05:15:23;;;;;;;7.97;2.00;;;;;;;9.90;80.97;98730.34;5032392;28;20072;-76
2023/01/12 05:17:51;;;;;;;8.23;2.17;;;;;;;9.91;80.72;98717.09;5033059;28;20137;-76
2023/01/12 05:20:17;;;;;;;6.43;2.35;;;;;;;9.91;80.85;98721.53;5032569;28;20060;-76
2023/01/12 05:22:44;;;;;;;9.02;2.00;;;;;;;9.91;80.78;98703.97;5033095;28;20056;-76
2023/01/12 05:25:10;;;;;;;9.70;2.40;;;;;;;9.91;80.72;98697.88;5032797;28;20056;-76
2023/01/12 05:27:37;;;;;;;5.13;2.30;;;;;;;9.93;80.80;98692.50;5032453;28;20488;-76
2023/01/12 05:30:04;;;;;;;8.52;2.47;;;;;;;9.91;80.64;98698.72;5032937;28;20141;-76
2023/01/12 05:32:37;;;;;;;11.00;2.63;;;;;;;9.89;80.53;98684.84;5032519;28;20048;-76
2023/01/12 05:35:05;;;;;;;8.38;2.22;;;;;;;9.88;80.42;98687.59;5032592;28;20049;-76
2023/01/12 05:37:32;;;;;;;6.95;2.30;;;;;;;9.88;80.42;98674.44;5031895;28;20061;-77
2023/01/12 05:39:59;;;;;;;9.23;2.65;;;;;;;9.89;80.45;98694.50;5032168;28;20497;-78
2023/01/12 05:45:11;;;;;;;10.48;2.55;;;;;;;9.88;80.58;98684.97;5032467;28;20068;-79
2023/01/12 05:47:38;;;;;;;11.35;2.53;;;;;;;9.88;80.29;98664.75;5031865;28;20477;-79
2023/01/12 05:50:05;;;;;;;9.60;2.65;;;;;;;9.86;80.37;98664.03;5032511;28;20068;-79
2023/01/12 05:52:31;;;;;;;7.68;2.40;;;;;;;9.86;80.43;98652.66;5031925;28;20045;-79
2023/01/12 05:54:58;;;;;;;9.80;2.10;;;;;;;9.85;80.40;98653.63;5032008;28;20046;-79
2023/01/12 05:57:24;;;;;;;11.10;2.80;;;;;;;9.80;80.34;98672.38;5031963;28;20049;-78
2023/01/12 05:59:51;;;;;;;7.47;2.15;;;;;;;9.78;80.30;98640.94;5032214;28;20053;-79
2023/01/12 06:02:20;;;;;;;7.60;1.90;;;;;;;9.74;80.44;98633.38;5031961;28;20068;-79
2023/01/12 06:04:47;;;;;;;5.90;1.85;;;;;;;9.71;80.43;98650.19;5032032;28;20470;-79
2023/01/12 06:07:15;;;;;;;7.68;1.65;;;;;;;9.69;80.51;98611.84;5013914;28;20123;-78
2023/01/12 06:09:41;;;;;;;8.98;2.10;;;;;;;9.63;80.23;98599.97;5032162;28;20067;-79
2023/01/12 06:14:55;;;;;;;8.13;1.98;;;;;;;9.54;80.34;98579.63;5031746;28;20049;-80
2023/01/12 06:17:21;;;;;;;4.53;1.25;;;;;;;9.51;80.55;98564.94;5014153;28;20049;-80
2023/01/12 06:19:48;;;;;;;6.05;1.63;;;;;;;9.46;80.63;98562.63;5031427;28;20054;-80
2023/01/12 06:22:14;;;;;;;6.03;1.52;;;;;;;9.44;80.95;98567.16;5031875;28;20060;-80
2023/01/12 06:24:41;;;;;;;5.40;1.35;;;;;;;9.40;80.48;98555.19;5031365;28;20049;-80
2023/01/12 06:27:07;;;;;;;7.80;1.63;;;;;;;9.39;81.05;98549.09;5014005;28;20049;-80
2023/01/12 06:29:34;;;;;;;5.50;1.40;;;;;;;9.39;81.15;98545.66;5031406;28;20052;-80
2023/01/12 06:32:00;;;;;;;4.95;2.05;;;;;;;9.37;81.14;98537.88;5031509;28;20133;-80
2023/01/12 06:34:33;;;;;;;7.18;1.65;;;;;;;9.36;81.32;98545.84;5031208;28;20063;-81
2023/01/12 06:37:01;;;;;;;4.30;1.40;;;;;;;9.39;81.56;98545.66;5031648;28;20052;-80
2023/01/12 06:42:27;;;;;;;4.32;1.73;;;;;;;9.37;81.26;98522.13;4951453;29;20051;-79
2023/01/12 06:44:58;;;;;;;5.00;1.23;;;;;;;9.38;81.61;98533.44;4952785;29;20559;-80
2023/01/12 06:47:32;;;;;;;4.40;1.73;;;;;;;9.41;81.76;98524.53;4952290;29;20464;-80
2023/01/12 06:49:59;;;;;;;5.05;1.52;;;;;;;9.41;81.83;98537.66;4952799;28;20118;-81
2023/01/12 06:52:26;;;;;;;7.75;1.52;;;;;;;9.41;81.74;98540.28;4951905;28;20416;-79
2023/01/12 06:54:53;;;;;;;6.80;1.73;;;;;;;9.42;82.20;98536.69;4948153;28;20069;-77
2023/01/12 06:57:19;;;;;;;6.55;2.00;;;;;;;9.44;81.97;98533.00;4951233;28;20067;-79
2023/01/12 06:59:46;;;;;;;6.43;1.50;;;;;;;9.44;82.04;98516.41;4951619;29;20058;-80
2023/01/12 07:02:14;;;;;;;5.50;1.17;;;;;;;9.44;82.02;98530.38;4951188;29;20105;-78
2023/01/12 07:04:41;;;;;;;4.03;1.60;;;;;;;9.47;82.00;98522.28;4952748;29;20469;-80
2023/01/12 07:07:09;;;;;;;4.72;1.27;;;;;;;9.50;82.02;98543.06;4951007;29;20510;-80
2023/01/12 07:09:36;;;;;;;3.60;1.45;;;;;;;9.52;82.37;98556.09;4950161;29;20065;-80
2023/01/12 07:12:03;;;;;;;5.50;1.75;;;;;;;9.55;82.37;98544.53;4952471;29;20815;-77
2023/01/12 07:14:30;;;;;;;3.50;1.30;;;;;;;9.56;82.40;98518.16;4952729;29;20091;-79
2023/01/12 07:16:56;;;;;;;7.85;1.55;;;;;;;9.57;82.36;98535.56;4950374;29;20051;-79
2023/01/12 07:19:23;;;;;;;5.47;1.58;;;;;;;9.56;82.68;98533.91;4951178;29;20511;-78
2023/01/12 07:21:49;;;;;;;6.15;1.58;;;;;;;9.59;82.41;98538.94;4951128;29;20082;-79
2023/01/12 07:24:16;;;;;;;7.30;1.70;;;;;;;9.61;82.56;98562.47;4952224;29;20519;-79
2023/01/12 07:26:43;;;;;;;2.42;1.60;;;;;;;9.63;82.46;98563.19;4951612;29;20086;-79
2023/01/12 07:29:12;;;;;;;4.13;2.03;;;;;;;9.68;82.62;98557.63;4952908;29;20067;-79
2023/01/12 07:31:39;;;;;;;5.18;1.90;;;;;;;9.69;82.91;98518.09;4951241;29;20098;-78
2023/01/12 07:34:05;;;;;;;6.60;1.77;;;;;;;9.70;82.48;98543.41;4952416;29;20142;-80
2023/01/12 07:36:35;;;;;;;7.28;1.88;;;;;;;9.71;82.53;98545.09;4952056;29;20082;-78
2023/01/12 07:39:01;;;;;;;7.30;1.88;;;;;;;9.75;82.63;98529.94;4952502;29;20143;-79
2023/01/12 07:44:13;;;;;;;6.38;1.90;;;;;;;9.81;82.42;98544.41;4952596;29;20067;-78
2023/01/12 07:46:40;;;;;;;5.20;1.58;;;;;;;9.84;82.41;98549.44;4952092;29;20067;-79
2023/01/12 07:49:06;;;;;;;6.30;2.03;;;;;;;9.84;82.30;98555.56;4952328;29;20444;-79
2023/01/12 07:51:33;;;;;;;6.40;1.90;;;;;;;9.86;82.65;98564.16;4951945;29;20063;-79
2023/01/12 07:54:00;;;;;;;7.40;1.73;;;;;;;9.87;82.26;98544.78;4952706;29;20312;-79
2023/01/12 07:56:26;;;;;;;5.05;1.92;;;;;;;9.87;82.65;98559.75;4951978;29;20064;-79
2023/01/12 07:58:53;;;;;;;6.53;2.08;;;;;;;9.88;82.72;98553.53;4950776;29;20055;-79
2023/01/12 08:01:19;;;;;;;3.38;1.20;;;;;;;9.90;82.50;98546.34;4947141;28;20105;-79
2023/01/12 08:03:46;;;;;;;4.97;1.88;;;;;;;9.93;82.62;98564.53;4954012;29;20115;-78
2023/01/12 08:06:13;;;;;;;5.07;1.40;;;;;;;9.96;82.70;98531.94;4955152;29;20083;-80
2023/01/12 08:08:39;;;;;;;5.07;1.33;;;;;;;9.97;82.70;98537.06;4955745;29;20192;-79
2023/01/12 08:11:08;;;;;;;6.00;1.63;;;;;;;10.01;82.62;98548.19;4950449;28;20055;-79
2023/01/12 08:13:37;;;;;;;4.85;1.48;;;;;;;10.01;82.82;98548.19;4953867;28;20230;-78
2023/01/12 08:16:11;;;;;;;4.22;1.52;;;;;;;10.04;82.61;98547.97;4948806;29;20051;-78
2023/01/12 08:18:48;;;;;;;3.00;1.35;;;;;;;10.05;82.72;98541.75;4960051;28;20055;-79
2023/01/12 08:21:19;;;;;;;4.88;1.10;;;;;;;10.06;82.55;98567.13;4955754;29;20503;-79
2023/01/12 08:23:53;;;;;;;6.18;1.85;;;;;;;10.06;82.50;98553.97;4955557;29;20051;-79
2023/01/12 08:26:23;;;;;;;4.45;1.23;;;;;;;10.10;82.73;98550.13;4955605;29;20055;-79
2023/01/12 08:28:55;;;;;;;5.70;1.60;;;;;;;10.13;82.60;98551.72;4953861;29;20420;-78
2023/01/12 08:31:23;;;;;;;3.45;1.10;;;;;;;10.16;82.99;98551.47;4955787;29;20058;-79
2023/01/12 08:33:52;;;;;;;2.13;1.10;;;;;;;10.17;82.79;98545.28;4955505;29;20122;-79
2023/01/12 08:36:20;;;;;;;5.00;1.10;;;;;;;10.20;83.12;98547.66;4953610;29;20055;-78
2023/01/12 08:38:47;;;;;;;2.28;0.98;;;;;;;10.23;83.05;98541.31;4955042;29;20058;-77
2023/01/12 08:41:32;;;;;;;3.35;1.17;;;;;;;10.25;83.01;98545.50;4955118;29;20055;-78
2023/01/12 08:44:01;;;;;;;1.88;0.85;;;;;;;10.27;82.99;98548.03;4954844;29;20055;-78
2023/01/12 08:46:38;;;;;;;2.30;1.10;;;;;;;10.25;82.44;98552.59;4955417;29;20146;-77
2023/01/12 08:49:10;;;;;;;2.20;1.02;;;;;;;10.30;82.73;98556.56;4955118;29;20582;-77
2023/01/12 08:51:40;;;;;;;3.22;1.20;;;;;;;10.33;83.08;98552.84;4954918;29;20065;-78
2023/01/12 08:54:09;;;;;;;8.32;1.88;;;;;;;10.34;82.83;98557.16;4954794;29;20397;-77
2023/01/12 08:56:36;;;;;;;2.95;1.27;;;;;;;10.38;82.98;98544.59;4955851;28;20062;-77
2023/01/12 08:59:03;;;;;;;2.38;1.00;;;;;;;10.38;82.95;98563.84;4954760;28;20070;-76
2023/01/12 09:01:30;;;;;;;2.60;1.10;;;;;;;10.40;82.91;98556.66;4955326;28;20070;-77
2023/01/12 09:03:58;;;;;;;3.30;1.15;;;;;;;10.43;82.97;98548.56;4969616;28;20055;-77
2023/01/12 09:06:44;;;;;;;4.20;1.60;;;;;;;10.46;82.99;98552.78;4954801;29;20090;-77
2023/01/12 09:09:15;;;;;;;4.47;1.10;;;;;;;10.43;82.89;98572.22;4955113;28;20059;-77
2023/01/12 09:12:06;;;;;;;3.22;1.10;;;;;;;10.51;83.26;98576.13;4954804;28;20054;-79
2023/01/12 09:14:37;;;;;;;1.58;0.90;;;;;;;10.52;83.13;98569.88;4954112;28;20066;-78
2023/01/12 09:17:05;;;;;;;2.13;1.00;;;;;;;10.55;83.23;98559.97;4968780;28;20385;-78
2023/01/12 09:19:32;;;;;;;4.60;1.45;;;;;;;10.58;83.09;98574.66;4955003;28;20063;-77
2023/01/12 09:21:59;;;;;;;3.13;1.17;;;;;;;10.58;83.04;98553.63;4954921;29;20114;-77
2023/01/12 09:24:26;;;;;;;2.50;0.80;;;;;;;10.63;83.25;98576.97;4954830;29;20067;-77
2023/01/12 09:26:52;;;;;;;3.42;0.70;;;;;;;10.64;83.12;98578.63;4969087;28;20134;-77
2023/01/12 09:29:19;;;;;;;2.45;1.05;;;;;;;10.67;83.21;98567.88;4969413;28;20062;-76
2023/01/12 09:31:46;;;;;;;2.28;0.90;;;;;;;10.69;83.12;98582.59;4954148;29;20420;-77
2023/01/12 09:34:12;;;;;;;4.80;1.30;;;;;;;10.71;83.08;98574.59;4969410;28;20052;-78
2023/01/12 09:36:39;;;;;;;3.42;1.00;;;;;;;10.75;83.04;98569.91;4954235;28;20118;-77
2023/01/12 09:39:07;;;;;;;3.13;0.98;;;;;;;10.77;82.98;98578.53;4969259;28;20515;-78
2023/01/12 09:47:38;;;;;;;1.80;0.80;;;;;;;10.82;82.46;98590.41;4954142;29;20058;-77
2023/01/12 09:50:09;;;;;;;2.65;0.80;;;;;;;10.87;83.06;98592.66;4953271;28;20424;-77
2023/01/12 09:52:59;;;;;;;1.20;0.70;;;;;;;10.84;82.32;98589.44;4953631;29;20058;-77
2023/01/12 09:55:40;;;;;;;3.50;0.80;;;;;;;10.84;82.34;98616.59;4954164;29;20065;-77
2023/01/12 09:58:41;;;;;;;1.67;1.00;;;;;;;10.87;82.50;98605.81;4953753;29;20081;-76
2023/01/12 10:01:11;;;;;;;2.78;0.95;;;;;;;10.90;82.73;98581.91;4953969;29;20062;-77
2023/01/12 10:03:54;;;;;;;1.73;0.90;;;;;;;10.92;83.13;98606.31;4954231;29;20067;-77
2023/01/12 10:06:20;;;;;;;0.90;0.80;;;;;;;10.95;83.16;98629.78;4950914;28;20519;-77
2023/01/12 10:08:50;;;;;;;1.85;0.90;;;;;;;10.97;83.21;98618.28;4953637;29;20059;-77
2023/01/12 10:11:38;;;;;;;2.10;0.82;;;;;;;10.94;82.63;98614.94;4953631;28;20048;-77
2023/01/12 10:14:26;;;;;;;2.58;1.17;;;;;;;10.99;82.82;98634.81;4953598;29;20051;-79
2023/01/12 10:17:34;;;;;;;4.30;1.35;;;;;;;10.99;82.47;98614.56;4950926;28;20050;-78
2023/01/12 10:20:38;;;;;;;1.40;0.95;;;;;;;11.04;82.64;98630.03;4953500;29;20078;-78
2023/01/12 10:23:08;;;;;;;1.92;0.80;;;;;;;11.10;82.69;98626.09;4953260;29;20486;-77
2023/01/12 10:25:43;;;;;;;3.53;1.17;;;;;;;11.11;82.66;98628.59;4953159;28;20110;-78
2023/01/12 10:28:23;;;;;;;2.13;0.80;;;;;;;11.15;82.66;98639.72;4952113;29;20051;-78
2023/01/12 10:30:51;;;;;;;1.80;1.00;;;;;;;11.20;83.05;98641.06;4953789;29;20063;-77
2023/01/12 10:33:28;;;;;;;1.10;0.60;;;;;;;11.20;82.86;98619.13;4953198;28;20067;-78
2023/01/12 10:35:57;;;;;;;2.17;1.30;;;;;;;11.23;82.76;98642.59;4952006;28;20059;-78
2023/01/12 10:38:34;;;;;;;1.90;0.85;;;;;;;11.27;83.10;98638.78;4952991;29;20048;-78
2023/01/12 10:41:09;;;;;;;1.45;0.63;;;;;;;11.29;82.73;98650.03;4951526;29;20117;-78
2023/01/12 10:43:36;;;;;;;1.10;0.55;;;;;;;11.33;83.02;98638.28;4952237;29;20117;-79
2023/01/12 10:46:13;;;;;;;2.33;0.80;;;;;;;11.32;82.35;98636.63;4950277;29;20408;-79
2023/01/12 10:48:43;;;;;;;2.78;1.00;;;;;;;11.37;82.79;98645.94;4950350;29;20526;-78
2023/01/12 10:51:33;;;;;;;1.00;0.60;;;;;;;11.36;82.08;98639.00;4952554;29;20051;-77
2023/01/12 10:54:09;;;;;;;1.15;0.75;;;;;;;11.38;82.01;98656.38;4953025;29;20595;-78
2023/01/12 10:56:53;;;;;;;1.23;0.60;;;;;;;11.42;82.18;98636.75;4952391;29;20063;-77
2023/01/12 10:59:24;;;;;;;2.08;0.80;;;;;;;11.47;82.59;98634.56;4952963;28;20485;-77
2023/01/12 11:01:52;;;;;;;1.10;0.75;;;;;;;11.47;82.52;98650.38;4952785;29;20055;-77
2023/01/12 11:04:22;;;;;;;1.30;0.65;;;;;;;11.50;82.54;98638.75;4952960;29;20101;-78
2023/01/12 11:07:03;;;;;;;1.10;0.68;;;;;;;11.47;81.94;98644.25;4952353;29;20098;-77
2023/01/12 11:09:31;;;;;;;2.40;0.65;;;;;;;11.51;82.69;98648.34;4952702;29;20059;-77
2023/01/12 11:12:22;;;;;;;1.08;0.60;;;;;;;11.46;81.77;98643.44;4952586;29;20051;-77
2023/01/12 11:14:56;;;;;;;0.60;0.60;;;;;;;11.51;82.46;98648.34;4952854;29;20059;-77
2023/01/12 11:17:42;;;;;;;2.72;0.82;;;;;;;11.50;82.09;98651.94;4952302;29;20093;-77
2023/01/12 11:20:38;;;;;;;1.25;0.70;;;;;;;11.52;82.27;98642.13;4952717;29;20059;-77
2023/01/12 11:23:28;;;;;;;0.90;0.80;;;;;;;11.53;82.19;98645.56;4949485;29;20481;-77
2023/01/12 11:25:55;;;;;;;2.40;0.80;;;;;;;11.54;82.57;98644.63;4952538;29;20059;-77
2023/01/12 11:28:41;;;;;;;1.13;0.68;;;;;;;11.50;82.03;98651.94;4952524;28;20055;-77
2023/01/12 11:31:20;;;;;;;0.90;0.70;;;;;;;11.53;82.25;98649.06;4952469;29;20059;-77
2023/01/12 11:34:20;;;;;;;1.50;0.47;;;;;;;11.51;81.92;98653.59;4952743;29;20058;-77
2023/01/12 11:36:54;;;;;;;1.10;0.80;;;;;;;11.55;82.39;98662.13;4950727;28;20055;-77
2023/01/12 11:39:27;;;;;;;0.85;0.70;;;;;;;11.55;82.29;98662.13;4952692;29;20066;-77
2023/01/12 11:44:50;;;;;;;0.70;0.50;;;;;;;11.62;82.27;98641.38;4952582;29;20353;-76
2023/01/12 11:47:27;;;;;;;3.53;0.73;;;;;;;11.60;82.42;98652.88;4952113;28;20102;-77
2023/01/12 11:50:04;;;;;;;1.75;0.70;;;;;;;11.59;82.05;98653.03;4952385;29;20512;-76
2023/01/12 11:52:31;;;;;;;0.68;0.60;;;;;;;11.63;83.01;98645.69;4952049;29;20059;-77
2023/01/12 11:54:58;;;;;;;0.50;0.50;;;;;;;11.65;83.01;98646.41;4952347;29;20056;-76
2023/01/12 11:57:30;;;;;;;0.70;0.45;;;;;;;11.66;83.03;98658.63;4951938;29;20142;-77
2023/01/12 12:00:05;;;;;;;0.50;0.50;;;;;;;11.68;82.98;98662.81;4952595;29;20062;-77
2023/01/12 12:02:37;;;;;;;1.88;0.68;;;;;;;11.68;82.56;98647.00;4952213;29;20066;-76
2023/01/12 12:05:28;;;;;;;1.77;0.90;;;;;;;11.66;82.31;98645.47;4952202;29;20051;-77
2023/01/12 12:08:10;;;;;;;2.88;0.80;;;;;;;11.68;82.35;98651.44;4951892;28;20146;-77
2023/01/12 12:10:56;;;;;;;1.90;0.50;;;;;;;11.66;82.15;98641.00;4952502;29;20149;-77
2023/01/12 12:13:51;;;;;;;0.80;0.52;;;;;;;11.67;82.12;98650.59;4952023;28;20065;-77
2023/01/12 12:16:50;;;;;;;1.98;0.60;;;;;;;11.67;82.02;98647.94;4952666;28;22284;-76
2023/01/12 12:19:42;;;;;;;2.25;0.70;;;;;;;11.68;81.89;98636.47;4952158;28;20094;-77
2023/01/12 12:22:35;;;;;;;1.08;0.60;;;;;;;11.72;82.37;98644.97;4952115;29;20101;-77
2023/01/12 12:25:27;;;;;;;1.17;0.70;;;;;;;11.72;82.49;98643.16;4950815;28;20284;-77
2023/01/12 12:28:06;;;;;;;0.50;0.50;;;;;;;11.75;82.80;98634.19;4951953;29;20415;-76
2023/01/12 12:30:38;;;;;;;0.63;0.43;;;;;;;11.76;82.15;98637.63;4952025;29;20587;-77
2023/01/12 12:33:38;;;;;;;0.60;0.50;;;;;;;11.78;82.26;98630.44;4951690;29;20476;-76
2023/01/12 12:36:29;;;;;;;0.57;0.47;;;;;;;11.79;82.25;98627.69;4951886;28;20051;-77
2023/01/12 12:39:08;;;;;;;0.82;0.50;;;;;;;11.86;82.83;98630.69;4951672;29;20055;-76